This is the latest recevied weather packets stored in our database for station/object OZ7MKS. If no packets are shown the sender has not sent any weather packets the latest 10 day(s).
| Time | Temp. | Humidity | Pressure | Rain* | Wind** | Luminosity | Snow |
|---|---|---|---|---|---|---|---|
| 1777833005 | 11.67° C | 86% | 1008.8 hPa | 0 mm | - | - | - |
| 1777831804 | 12.22° C | 84% | 1009 hPa | 0 mm | - | - | - |
| 1777830304 | 12.78° C | 81% | 1009.1 hPa | 0 mm | - | - | - |
| 1777829404 | 13.33° C | 81% | 1009.2 hPa | 0 mm | - | - | - |
| 1777827304 | 13.33° C | 79% | 1009.2 hPa | 0 mm | - | - | - |
| 1777827004 | 13.33° C | 79% | 1009.2 hPa | 0 mm | - | - | - |
| 1777824304 | 13.89° C | 80% | 1009.5 hPa | 0 mm | - | - | - |
| 1777819204 | 13.89° C | 80% | 1010.1 hPa | 0 mm | - | - | - |
| 1777818903 | 14.44° C | 80% | 1010.2 hPa | 0 mm | - | - | - |
| 1777813804 | 15.56° C | 77% | 1010.7 hPa | 0 mm | - | - | - |
| 1777812604 | 16.11° C | 77% | 1010.9 hPa | 0 mm | - | - | - |
| 1777810204 | 16.11° C | 77% | 1011 hPa | 0 mm | - | - | - |
| 1777807204 | 14.44° C | 79% | 1011.2 hPa | 0 mm | - | - | - |
| 1777805704 | 15° C | 78% | 1011.4 hPa | 0 mm | - | - | - |
| 1777798203 | 11.67° C | 89% | 1011.7 hPa | 0 mm | - | - | - |
| 1777797903 | 11.67° C | 89% | 1011.8 hPa | 0 mm | - | - | - |
| 1777794304 | 9.44° C | 96% | 1011.7 hPa | 0 mm | - | - | - |
| 1777792204 | 8.89° C | 97% | 1011.6 hPa | 0 mm | - | - | - |
| 1777790104 | 8.89° C | 97% | 1011.4 hPa | 0 mm | - | - | - |
| 1777787404 | 8.89° C | 97% | 1011.5 hPa | 0 mm | - | - | - |
| 1777786804 | 9.44° C | 97% | 1011.4 hPa | 0 mm | - | - | - |
| 1777784404 | 9.44° C | 97% | 1011.3 hPa | 0 mm | - | - | - |
| 1777782604 | 9.44° C | 97% | 1011.3 hPa | 0 mm | - | - | - |
| 1777781703 | 9.44° C | 97% | 1011.1 hPa | 0 mm | - | - | - |
| 1777780204 | 10° C | 96% | 1011.3 hPa | 0 mm | - | - | - |
* Rain latest hour (hover to see other rain measurements)
** Current wind speed in m/s (hover to see current wind gust speed)